createdAt,value
2018-09-30T00:01:58.229Z,67.10
2018-09-30T00:04:26.897Z,67.20
2018-09-30T00:06:55.424Z,67.40
2018-09-30T00:09:31.054Z,67.10
2018-09-30T00:12:01.692Z,67.40
2018-09-30T00:14:30.373Z,66.20
2018-09-30T00:16:59.492Z,67.70
2018-09-30T00:19:28.401Z,67.70
2018-09-30T00:21:56.933Z,67.90
2018-09-30T00:24:30.869Z,67.20
2018-09-30T00:27:01.036Z,67.10
2018-09-30T00:29:30.530Z,67.60
2018-09-30T00:31:59.872Z,67.70
2018-09-30T00:34:30.238Z,67.70
2018-09-30T00:36:59.977Z,68.10
2018-09-30T00:39:28.966Z,67.40
2018-09-30T00:41:57.656Z,67.40
2018-09-30T00:44:26.302Z,67.30
2018-09-30T00:46:54.841Z,67.90
2018-09-30T00:49:23.360Z,68.50
2018-09-30T00:51:51.845Z,68.70
2018-09-30T00:54:20.320Z,68.10
2018-09-30T00:56:48.859Z,69.10
2018-09-30T00:59:20.405Z,68.70
2018-09-30T01:01:48.986Z,68.30
2018-09-30T01:04:17.945Z,68.10
2018-09-30T01:06:46.429Z,68.80
2018-09-30T01:09:16.017Z,69.30
2018-09-30T01:11:45.174Z,69.00
2018-09-30T01:14:13.843Z,68.90
2018-09-30T01:16:42.413Z,70.10
2018-09-30T01:19:10.992Z,69.50
2018-09-30T01:21:39.457Z,69.70
2018-09-30T01:24:08.054Z,70.60
2018-09-30T01:26:36.481Z,69.40
2018-09-30T01:29:05.030Z,70.00
2018-09-30T01:31:33.584Z,69.70
2018-09-30T01:34:02.310Z,70.00
2018-09-30T01:36:31.103Z,70.60
2018-09-30T01:39:00.241Z,70.70
2018-09-30T01:41:29.035Z,70.60
2018-09-30T01:43:58.000Z,70.50
2018-09-30T01:46:26.736Z,69.70
2018-09-30T01:48:55.580Z,70.60
2018-09-30T01:51:24.253Z,70.00
2018-09-30T01:53:52.875Z,70.70
2018-09-30T01:56:21.385Z,70.60
2018-09-30T01:58:49.896Z,70.10
2018-09-30T02:01:18.341Z,70.80
2018-09-30T02:03:46.867Z,70.80
2018-09-30T02:06:15.368Z,71.80
2018-09-30T02:08:44.101Z,71.80
2018-09-30T02:11:12.558Z,71.70
2018-09-30T02:13:41.156Z,71.50
2018-09-30T02:16:09.720Z,71.70
2018-09-30T02:18:38.142Z,71.10
2018-09-30T02:21:06.784Z,71.30
2018-09-30T02:23:35.493Z,71.80
2018-09-30T02:26:04.248Z,71.10
2018-09-30T02:28:32.708Z,70.90
2018-09-30T02:31:01.256Z,70.50
2018-09-30T02:33:29.812Z,71.10
2018-09-30T02:35:58.429Z,70.60
2018-09-30T02:38:27.131Z,71.50
2018-09-30T02:40:55.692Z,71.60
2018-09-30T02:43:24.174Z,72.00
2018-09-30T02:45:52.603Z,72.40
2018-09-30T02:48:21.054Z,72.10
2018-09-30T02:50:49.675Z,72.50
2018-09-30T02:53:18.084Z,73.10
2018-09-30T02:55:46.559Z,73.00
2018-09-30T02:58:14.995Z,73.50
2018-09-30T03:00:43.647Z,73.90
2018-09-30T03:03:12.107Z,73.80
2018-09-30T03:05:40.633Z,74.20
2018-09-30T03:08:14.328Z,73.70
2018-09-30T03:10:43.302Z,73.20
2018-09-30T03:13:11.906Z,72.90
2018-09-30T03:15:40.493Z,73.70
2018-09-30T03:18:08.954Z,73.40
2018-09-30T03:20:37.616Z,73.40
2018-09-30T03:23:06.142Z,73.20
2018-09-30T03:25:34.598Z,73.20
2018-09-30T03:28:03.114Z,72.80
2018-09-30T03:30:31.666Z,72.70
2018-09-30T03:33:00.277Z,72.70
2018-09-30T03:35:29.069Z,74.00
2018-09-30T03:37:57.686Z,73.50
2018-09-30T03:40:26.297Z,73.40
2018-09-30T03:42:54.798Z,74.70
2018-09-30T03:45:23.340Z,74.60
2018-09-30T03:47:51.764Z,74.70
2018-09-30T03:50:20.293Z,74.70
2018-09-30T03:52:48.793Z,74.40
2018-09-30T03:55:17.285Z,74.20
2018-09-30T03:57:45.776Z,74.30
2018-09-30T04:00:14.264Z,73.60
2018-09-30T04:02:42.735Z,74.10
2018-09-30T04:05:11.241Z,74.70
2018-09-30T04:07:39.786Z,74.70
2018-09-30T04:10:08.392Z,74.30
2018-09-30T04:12:36.849Z,74.20
2018-09-30T04:15:05.297Z,74.50
2018-09-30T04:17:33.777Z,74.50
2018-09-30T04:20:02.409Z,74.50
2018-09-30T04:22:31.147Z,74.60
2018-09-30T04:24:59.776Z,74.50
2018-09-30T04:27:28.341Z,74.40
2018-09-30T04:29:56.983Z,74.40
2018-09-30T04:32:25.878Z,75.10
2018-09-30T04:34:54.419Z,74.80
2018-09-30T04:37:22.964Z,74.50
2018-09-30T04:39:51.405Z,74.40
2018-09-30T04:42:19.953Z,75.40
2018-09-30T04:44:48.467Z,75.40
2018-09-30T04:47:17.021Z,74.70
2018-09-30T04:49:45.509Z,74.50
2018-09-30T04:52:14.057Z,74.70
2018-09-30T04:54:42.565Z,74.90
2018-09-30T04:57:11.081Z,74.40
2018-09-30T04:59:39.737Z,75.30
2018-09-30T05:02:08.336Z,74.40
2018-09-30T05:04:36.847Z,74.90
2018-09-30T05:07:05.708Z,74.70
2018-09-30T05:09:34.263Z,75.80
2018-09-30T05:12:02.865Z,75.80
2018-09-30T05:14:31.392Z,75.30
2018-09-30T05:17:00.092Z,75.30
2018-09-30T05:19:28.825Z,75.60
2018-09-30T05:21:57.436Z,75.90
2018-09-30T05:24:26.135Z,76.00
2018-09-30T05:26:54.647Z,75.90
2018-09-30T05:29:23.061Z,75.80
2018-09-30T05:31:51.622Z,76.40
2018-09-30T05:34:20.122Z,76.00
2018-09-30T05:36:48.645Z,75.70
2018-09-30T05:39:17.181Z,75.70
2018-09-30T05:41:45.668Z,75.20
2018-09-30T05:44:14.125Z,75.10
2018-09-30T05:46:42.615Z,75.60
2018-09-30T05:49:11.077Z,75.70
2018-09-30T05:51:39.589Z,76.30
2018-09-30T05:54:08.173Z,75.50
2018-09-30T05:56:36.698Z,76.20
2018-09-30T05:59:12.280Z,76.70
2018-09-30T06:01:40.851Z,76.30
2018-09-30T06:04:10.859Z,75.80
2018-09-30T06:06:39.692Z,76.60
2018-09-30T06:09:10.930Z,76.40
2018-09-30T06:11:39.765Z,76.80
2018-09-30T06:14:10.971Z,76.80
2018-09-30T06:16:41.643Z,77.40
2018-09-30T06:19:10.319Z,77.30
2018-09-30T06:21:39.564Z,77.90
2018-09-30T06:24:08.603Z,77.60
2018-09-30T06:26:37.104Z,77.80
2018-09-30T06:29:05.554Z,78.00
2018-09-30T06:31:34.175Z,78.00
2018-09-30T06:34:02.637Z,77.60
2018-09-30T06:36:31.152Z,77.40
2018-09-30T06:38:59.711Z,77.70
2018-09-30T06:41:28.361Z,77.60
2018-09-30T06:43:57.208Z,77.70
2018-09-30T06:46:26.280Z,78.00
2018-09-30T06:48:54.784Z,78.20
2018-09-30T06:51:23.296Z,78.50
2018-09-30T06:53:51.862Z,78.40
2018-09-30T06:56:20.391Z,78.40
2018-09-30T06:58:48.942Z,77.70
2018-09-30T07:01:18.824Z,77.40
2018-09-30T07:03:47.671Z,77.20
2018-09-30T07:06:16.327Z,77.60
2018-09-30T07:08:44.911Z,77.60
2018-09-30T07:11:13.537Z,76.80
2018-09-30T07:13:42.937Z,76.50
2018-09-30T07:16:11.489Z,75.80
2018-09-30T07:18:40.080Z,73.30
2018-09-30T07:21:08.617Z,71.90
2018-09-30T07:23:38.783Z,70.60
2018-09-30T07:26:07.632Z,70.30
2018-09-30T07:28:36.313Z,70.00
2018-09-30T07:31:08.905Z,68.90
2018-09-30T07:33:37.548Z,65.90
2018-09-30T07:36:06.057Z,65.00
2018-09-30T07:38:34.948Z,63.90
2018-09-30T07:41:03.511Z,63.20
2018-09-30T07:43:32.201Z,63.40
2018-09-30T07:46:01.036Z,61.30
2018-09-30T07:48:29.895Z,60.10
2018-09-30T07:50:58.472Z,58.80
2018-09-30T07:53:27.622Z,59.30
2018-09-30T07:55:56.643Z,58.10
2018-09-30T07:58:25.962Z,57.30
2018-09-30T08:00:54.665Z,57.30
2018-09-30T08:03:23.278Z,58.30
2018-09-30T08:05:52.084Z,56.10
2018-09-30T08:08:20.620Z,52.90
2018-09-30T08:10:49.274Z,52.80
2018-09-30T08:13:17.848Z,51.00
2018-09-30T08:15:46.762Z,51.80
2018-09-30T08:18:15.326Z,52.50
2018-09-30T08:20:43.860Z,52.10
2018-09-30T08:23:12.354Z,52.80
2018-09-30T08:25:40.855Z,53.40
2018-09-30T08:28:09.521Z,51.90
2018-09-30T08:30:38.129Z,51.90
2018-09-30T08:33:06.637Z,51.50
2018-09-30T08:35:35.189Z,51.40
2018-09-30T08:38:09.057Z,52.20
2018-09-30T08:40:43.018Z,50.80
2018-09-30T08:43:11.764Z,50.40
2018-09-30T08:45:40.677Z,51.00
2018-09-30T08:48:09.305Z,50.10
2018-09-30T08:50:38.831Z,49.60
2018-09-30T08:53:07.499Z,50.20
2018-09-30T08:55:36.540Z,50.30
2018-09-30T08:58:05.138Z,50.10
2018-09-30T09:00:33.867Z,49.80
2018-09-30T09:03:02.920Z,49.90
2018-09-30T09:05:31.618Z,49.50
2018-09-30T09:08:00.759Z,48.10
2018-09-30T09:10:29.653Z,47.70
2018-09-30T09:12:59.203Z,47.10
2018-09-30T09:15:28.507Z,47.10
2018-09-30T09:17:58.194Z,48.20
2018-09-30T09:20:27.125Z,48.20
2018-09-30T09:22:55.878Z,47.40
2018-09-30T09:25:24.994Z,48.00
2018-09-30T09:27:54.707Z,46.60
2018-09-30T09:30:23.477Z,46.90
2018-09-30T09:32:52.124Z,46.00
2018-09-30T09:35:20.909Z,46.40
2018-09-30T09:37:49.604Z,46.00
2018-09-30T09:40:18.378Z,45.20
2018-09-30T09:42:46.892Z,44.40
2018-09-30T09:45:15.661Z,45.20
2018-09-30T09:47:44.253Z,45.10
2018-09-30T09:50:12.921Z,44.80
2018-09-30T09:52:41.586Z,45.10
2018-09-30T09:55:10.221Z,45.40
2018-09-30T09:57:39.026Z,45.50
2018-09-30T10:00:08.554Z,45.20
2018-09-30T10:02:37.183Z,44.30
2018-09-30T10:05:06.174Z,44.80
2018-09-30T10:07:36.435Z,44.00
2018-09-30T10:10:05.090Z,42.30
2018-09-30T10:12:33.707Z,42.40
2018-09-30T10:15:02.302Z,41.00
2018-09-30T10:17:31.113Z,39.90
2018-09-30T10:19:59.899Z,40.20
2018-09-30T10:22:28.695Z,38.90
2018-09-30T10:24:57.545Z,38.20
2018-09-30T10:27:26.297Z,38.10
2018-09-30T10:30:01.750Z,39.30
2018-09-30T10:32:30.337Z,39.80
2018-09-30T10:34:59.145Z,41.20
2018-09-30T10:37:28.274Z,40.00
2018-09-30T10:39:57.046Z,39.80
2018-09-30T10:42:25.680Z,39.00
2018-09-30T10:44:54.454Z,39.20
2018-09-30T10:47:23.048Z,38.60
2018-09-30T10:49:51.640Z,39.60
2018-09-30T10:52:20.206Z,39.00
2018-09-30T10:54:48.827Z,39.10
2018-09-30T10:57:17.329Z,39.30
2018-09-30T10:59:45.883Z,38.40
2018-09-30T11:02:14.613Z,38.40
2018-09-30T11:04:43.221Z,38.00
2018-09-30T11:07:12.435Z,38.20
2018-09-30T11:09:41.084Z,38.30
2018-09-30T11:12:09.702Z,38.30
2018-09-30T11:14:38.383Z,38.40
2018-09-30T11:17:07.381Z,38.00
2018-09-30T11:19:36.006Z,38.30
2018-09-30T11:22:04.635Z,38.60
2018-09-30T11:24:33.232Z,37.80
2018-09-30T11:27:02.120Z,38.20
2018-09-30T11:29:30.748Z,37.80
2018-09-30T11:31:59.549Z,38.50
2018-09-30T11:34:28.310Z,39.10
2018-09-30T11:36:57.099Z,40.10
2018-09-30T11:39:25.924Z,39.20
2018-09-30T11:41:54.465Z,39.30
2018-09-30T11:44:22.989Z,39.70
2018-09-30T11:46:51.634Z,39.30
2018-09-30T11:49:20.285Z,40.10
2018-09-30T11:51:48.884Z,39.90
2018-09-30T11:54:18.635Z,39.20
2018-09-30T11:56:47.217Z,40.20
2018-09-30T11:59:15.863Z,40.70
2018-09-30T12:01:44.484Z,40.60
2018-09-30T12:04:13.107Z,40.90
2018-09-30T12:06:41.727Z,41.50
2018-09-30T12:09:10.757Z,42.20
2018-09-30T12:11:39.343Z,41.40
2018-09-30T12:14:08.299Z,41.10
2018-09-30T12:16:36.885Z,41.40
2018-09-30T12:19:05.565Z,41.50
2018-09-30T12:21:35.133Z,41.40
2018-09-30T12:24:03.751Z,41.30
2018-09-30T12:26:32.456Z,40.40
2018-09-30T12:29:01.109Z,41.30
2018-09-30T12:31:30.002Z,41.90
2018-09-30T12:33:59.890Z,41.90
2018-09-30T12:36:28.622Z,41.90
2018-09-30T12:38:57.439Z,41.50
2018-09-30T12:41:26.086Z,41.40
2018-09-30T12:43:54.563Z,40.70
2018-09-30T12:46:23.311Z,41.20
2018-09-30T12:48:51.821Z,41.30
2018-09-30T12:51:20.416Z,41.20
2018-09-30T12:53:48.914Z,40.40
2018-09-30T12:56:17.459Z,40.40
2018-09-30T12:58:46.236Z,40.60
2018-09-30T13:01:14.784Z,40.10
2018-09-30T13:03:43.341Z,40.00
2018-09-30T13:06:11.924Z,40.00
2018-09-30T13:08:40.380Z,40.00
2018-09-30T13:11:08.850Z,40.00
2018-09-30T13:13:37.419Z,40.00
2018-09-30T13:16:06.037Z,39.70
2018-09-30T13:18:34.588Z,40.20
2018-09-30T13:21:03.770Z,39.70
2018-09-30T13:23:32.344Z,39.50
2018-09-30T13:26:00.871Z,39.50
2018-09-30T13:28:29.596Z,39.60
2018-09-30T13:30:58.247Z,40.20
2018-09-30T13:33:26.951Z,40.60
2018-09-30T13:35:55.674Z,40.20
2018-09-30T13:38:24.236Z,40.30
2018-09-30T13:40:52.851Z,40.50
2018-09-30T13:43:21.329Z,40.40
2018-09-30T13:45:50.228Z,40.30
2018-09-30T13:48:18.777Z,39.30
2018-09-30T13:50:47.239Z,39.30
2018-09-30T13:53:15.778Z,39.70
2018-09-30T13:55:44.271Z,39.70
2018-09-30T13:58:12.936Z,39.00
2018-09-30T14:00:41.434Z,38.90
2018-09-30T14:03:09.940Z,39.50
2018-09-30T14:05:38.430Z,40.00
2018-09-30T14:08:06.989Z,40.00
2018-09-30T14:10:35.500Z,40.20
2018-09-30T14:13:04.276Z,40.30
2018-09-30T14:15:32.895Z,40.10
2018-09-30T14:18:01.839Z,40.20
2018-09-30T14:20:30.749Z,40.00
2018-09-30T14:22:59.359Z,40.00
2018-09-30T14:25:28.981Z,40.60
2018-09-30T14:27:57.691Z,40.20
2018-09-30T14:30:26.313Z,40.10
2018-09-30T14:32:54.825Z,40.60
2018-09-30T14:35:23.381Z,40.60
2018-09-30T14:37:51.876Z,40.00
2018-09-30T14:40:20.380Z,40.40
2018-09-30T14:42:48.946Z,40.20
2018-09-30T14:45:17.462Z,40.30
2018-09-30T14:47:46.057Z,40.20
2018-09-30T14:50:14.561Z,40.00
2018-09-30T14:52:43.356Z,40.00
2018-09-30T14:55:12.149Z,39.70
2018-09-30T14:57:41.977Z,39.50
2018-09-30T15:00:10.700Z,39.40
2018-09-30T15:02:39.432Z,39.60
2018-09-30T15:05:09.772Z,39.70
2018-09-30T15:07:38.886Z,40.20
2018-09-30T15:10:08.048Z,40.00
2018-09-30T15:12:37.681Z,40.10
2018-09-30T15:15:07.981Z,40.10
2018-09-30T15:17:36.846Z,40.00
2018-09-30T15:20:05.519Z,40.40
2018-09-30T15:22:34.138Z,40.50
2018-09-30T15:25:02.777Z,40.70
2018-09-30T15:27:31.384Z,41.00
2018-09-30T15:30:00.289Z,42.30
2018-09-30T15:32:30.032Z,41.70
2018-09-30T15:34:58.819Z,41.10
2018-09-30T15:37:28.054Z,41.10
2018-09-30T15:39:56.839Z,41.00
2018-09-30T15:42:25.478Z,40.90
2018-09-30T15:44:54.106Z,40.80
2018-09-30T15:47:22.689Z,40.80
2018-09-30T15:49:51.216Z,40.80
2018-09-30T15:52:19.745Z,41.10
2018-09-30T15:54:48.350Z,41.70
2018-09-30T15:57:16.850Z,42.10
2018-09-30T15:59:45.462Z,42.30
2018-09-30T16:02:13.943Z,42.60
2018-09-30T16:04:43.044Z,42.10
2018-09-30T16:07:11.526Z,42.20
2018-09-30T16:09:40.176Z,42.30
2018-09-30T16:12:08.727Z,42.10
2018-09-30T16:14:37.257Z,42.90
2018-09-30T16:17:05.757Z,43.50
2018-09-30T16:19:34.372Z,43.60
2018-09-30T16:22:03.175Z,44.10
2018-09-30T16:24:31.945Z,44.10
2018-09-30T16:27:00.609Z,44.10
2018-09-30T16:29:29.747Z,44.10
2018-09-30T16:31:58.440Z,47.00
2018-09-30T16:34:27.480Z,46.80
2018-09-30T16:37:02.353Z,47.00
2018-09-30T16:39:31.360Z,46.50
2018-09-30T16:42:00.116Z,48.50
2018-09-30T16:44:29.025Z,50.40
2018-09-30T16:46:58.076Z,51.90
2018-09-30T16:49:26.606Z,53.50
2018-09-30T16:51:55.231Z,55.30
2018-09-30T16:54:23.801Z,56.70
2018-09-30T16:56:52.871Z,58.20
2018-09-30T16:59:21.793Z,58.20
2018-09-30T17:01:50.398Z,58.20
2018-09-30T17:04:18.973Z,58.10
2018-09-30T17:06:47.922Z,58.40
2018-09-30T17:09:16.451Z,58.90
2018-09-30T17:11:45.091Z,59.30
2018-09-30T17:14:13.926Z,59.60
2018-09-30T17:16:42.378Z,60.00
2018-09-30T17:19:11.939Z,60.30
2018-09-30T17:21:40.956Z,60.70
2018-09-30T17:24:10.207Z,60.80
2018-09-30T17:26:40.217Z,61.10
2018-09-30T17:29:09.646Z,61.20
2018-09-30T17:31:38.885Z,61.90
2018-09-30T17:34:08.016Z,61.70
2018-09-30T17:36:37.156Z,62.10
2018-09-30T17:39:07.985Z,61.60
2018-09-30T17:41:36.975Z,61.70
2018-09-30T17:44:07.809Z,62.30
2018-09-30T17:46:36.794Z,62.70
2018-09-30T17:49:05.683Z,62.50
2018-09-30T17:51:34.828Z,62.10
2018-09-30T17:54:03.785Z,62.30
2018-09-30T17:56:32.964Z,62.70
2018-09-30T17:59:01.480Z,63.30
2018-09-30T18:01:30.514Z,63.60
2018-09-30T18:03:59.161Z,63.40
2018-09-30T18:06:28.080Z,62.90
2018-09-30T18:08:56.629Z,63.10
2018-09-30T18:11:25.331Z,63.70
2018-09-30T18:13:54.534Z,63.90
2018-09-30T18:16:23.121Z,63.70
2018-09-30T18:18:52.073Z,62.00
2018-09-30T18:21:20.675Z,61.20
2018-09-30T18:23:49.295Z,62.80
2018-09-30T18:26:17.973Z,63.50
2018-09-30T18:28:46.474Z,63.20
2018-09-30T18:31:15.210Z,63.60
2018-09-30T18:33:43.662Z,64.00
2018-09-30T18:36:12.278Z,64.70
2018-09-30T18:38:40.807Z,65.10
2018-09-30T18:41:09.766Z,65.80
2018-09-30T18:43:39.636Z,66.40
2018-09-30T18:46:08.310Z,66.90
2018-09-30T18:48:37.216Z,66.20
2018-09-30T18:51:06.219Z,66.00
2018-09-30T18:53:35.065Z,65.80
2018-09-30T18:56:04.129Z,66.80
2018-09-30T18:58:33.072Z,67.00
2018-09-30T19:01:02.212Z,67.00
2018-09-30T19:03:31.367Z,66.90
2018-09-30T19:06:00.665Z,65.70
2018-09-30T19:08:29.660Z,66.70
2018-09-30T19:10:58.755Z,65.80
2018-09-30T19:13:27.500Z,67.30
2018-09-30T19:15:56.273Z,66.90
2018-09-30T19:18:25.137Z,67.40
2018-09-30T19:20:53.738Z,67.80
2018-09-30T19:23:22.251Z,67.60
2018-09-30T19:25:50.785Z,67.40
2018-09-30T19:28:19.389Z,59.70
2018-09-30T19:30:48.097Z,61.50
2018-09-30T19:33:16.715Z,60.70
2018-09-30T19:35:45.272Z,63.20
2018-09-30T19:38:13.779Z,64.80
2018-09-30T19:40:42.767Z,64.80
2018-09-30T19:43:11.769Z,65.40
2018-09-30T19:45:41.130Z,65.60
2018-09-30T19:48:10.235Z,65.70
2018-09-30T19:50:39.460Z,65.30
2018-09-30T19:53:08.430Z,64.60
2018-09-30T19:55:37.449Z,65.30
2018-09-30T19:58:06.011Z,64.00
2018-09-30T20:00:34.504Z,61.60
2018-09-30T20:03:03.149Z,58.40
2018-09-30T20:05:31.748Z,60.20
2018-09-30T20:08:00.382Z,59.50
2018-09-30T20:10:29.051Z,57.60
2018-09-30T20:12:57.710Z,53.90
2018-09-30T20:15:26.333Z,52.90
2018-09-30T20:17:55.138Z,51.30
2018-09-30T20:20:30.267Z,50.80
2018-09-30T20:22:59.226Z,50.80
2018-09-30T20:25:28.037Z,50.80
2018-09-30T20:27:57.409Z,50.60
2018-09-30T20:30:26.058Z,50.20
2018-09-30T20:32:54.646Z,50.00
2018-09-30T20:35:23.121Z,50.00
2018-09-30T20:37:51.747Z,49.70
2018-09-30T20:40:20.262Z,49.80
2018-09-30T20:42:48.805Z,49.70
2018-09-30T20:45:17.234Z,50.20
2018-09-30T20:47:45.777Z,49.40
2018-09-30T20:50:14.364Z,49.50
2018-09-30T20:52:42.883Z,50.10
2018-09-30T20:55:11.481Z,49.00
2018-09-30T20:57:40.086Z,48.90
2018-09-30T21:00:08.679Z,49.10
2018-09-30T21:02:37.393Z,49.10
2018-09-30T21:06:20.346Z,49.00
2018-09-30T21:08:48.782Z,49.00
2018-09-30T21:11:17.515Z,49.00
2018-09-30T21:13:46.081Z,48.90
2018-09-30T21:16:15.090Z,48.80
2018-09-30T21:18:46.064Z,48.90
2018-09-30T21:21:14.957Z,48.80
2018-09-30T21:23:43.636Z,48.80
2018-09-30T21:26:12.113Z,49.40
2018-09-30T21:28:40.614Z,49.10
2018-09-30T21:31:09.177Z,49.20
2018-09-30T21:33:37.792Z,49.30
2018-09-30T21:36:12.729Z,49.50
2018-09-30T21:38:41.285Z,49.40
2018-09-30T21:41:09.788Z,49.50
2018-09-30T21:43:38.253Z,49.50
2018-09-30T21:46:06.869Z,49.70
2018-09-30T21:48:35.441Z,49.80
2018-09-30T21:51:03.998Z,50.10
2018-09-30T21:53:32.586Z,50.50
2018-09-30T21:56:01.170Z,50.50
2018-09-30T21:58:29.813Z,50.50
2018-09-30T22:01:00.107Z,50.50
2018-09-30T22:03:28.994Z,50.40
2018-09-30T22:05:58.052Z,50.40
2018-09-30T22:08:26.642Z,50.50
2018-09-30T22:10:55.236Z,50.40
2018-09-30T22:13:23.945Z,50.50
2018-09-30T22:15:52.583Z,51.10
2018-09-30T22:18:21.173Z,50.40
2018-09-30T22:20:49.741Z,50.40
2018-09-30T22:23:18.207Z,51.20
2018-09-30T22:25:46.667Z,50.40
2018-09-30T22:28:15.146Z,50.40
2018-09-30T22:30:43.639Z,50.30
2018-09-30T22:33:12.105Z,50.40
2018-09-30T22:35:40.538Z,50.40
2018-09-30T22:38:09.089Z,50.30
2018-09-30T22:40:37.585Z,50.40
2018-09-30T22:43:06.097Z,50.20
2018-09-30T22:45:34.592Z,50.20
2018-09-30T22:48:03.148Z,50.20
2018-09-30T22:50:31.772Z,50.20
2018-09-30T22:53:00.361Z,50.20
2018-09-30T22:55:28.947Z,50.20
2018-09-30T22:57:57.623Z,50.20
2018-09-30T23:00:26.153Z,50.20
2018-09-30T23:02:54.708Z,50.20
2018-09-30T23:05:23.173Z,50.20
2018-09-30T23:07:51.892Z,50.20
2018-09-30T23:10:20.386Z,50.20
2018-09-30T23:12:48.925Z,50.10
2018-09-30T23:15:17.445Z,51.10
2018-09-30T23:17:46.028Z,51.70
2018-09-30T23:20:16.983Z,52.40
2018-09-30T23:22:45.926Z,52.30
2018-09-30T23:25:14.542Z,52.10
2018-09-30T23:27:43.473Z,51.70
2018-09-30T23:30:12.184Z,51.50
2018-09-30T23:32:40.724Z,50.50
2018-09-30T23:35:09.201Z,50.10
2018-09-30T23:37:37.633Z,50.20
2018-09-30T23:40:06.728Z,50.10
2018-09-30T23:42:35.663Z,50.20
2018-09-30T23:45:04.316Z,50.10
2018-09-30T23:47:32.848Z,50.10
2018-09-30T23:50:01.341Z,50.10
2018-09-30T23:52:30.121Z,50.10
2018-09-30T23:54:58.752Z,50.10
2018-09-30T23:57:27.647Z,50.10
2018-09-30T23:59:56.600Z,50.10
